sensor_id;sensor_type;location;lat;lon;timestamp;P1;durP1;ratioP1;P2;durP2;ratioP2
40058;SDS011;25763;49.972;8.568;2023-09-12T00:00:54;91.43;;;85.90;;
40058;SDS011;25763;49.972;8.568;2023-09-12T00:03:21;96.82;;;91.90;;
40058;SDS011;25763;49.972;8.568;2023-09-12T00:05:55;97.72;;;92.68;;
40058;SDS011;25763;49.972;8.568;2023-09-12T00:08:21;89.25;;;84.55;;
40058;SDS011;25763;49.972;8.568;2023-09-12T00:10:57;97.40;;;92.45;;
40058;SDS011;25763;49.972;8.568;2023-09-12T00:13:27;90.68;;;85.10;;
40058;SDS011;25763;49.972;8.568;2023-09-12T00:15:52;93.72;;;88.82;;
40058;SDS011;25763;49.972;8.568;2023-09-12T00:18:18;94.97;;;89.90;;
40058;SDS011;25763;49.972;8.568;2023-09-12T00:20:43;89.10;;;84.43;;
40058;SDS011;25763;49.972;8.568;2023-09-12T00:23:09;85.95;;;81.43;;
40058;SDS011;25763;49.972;8.568;2023-09-12T00:25:34;87.50;;;82.88;;
40058;SDS011;25763;49.972;8.568;2023-09-12T00:27:59;78.25;;;74.18;;
40058;SDS011;25763;49.972;8.568;2023-09-12T00:30:25;77.45;;;73.38;;
40058;SDS011;25763;49.972;8.568;2023-09-12T00:32:50;80.35;;;74.18;;
40058;SDS011;25763;49.972;8.568;2023-09-12T00:35:16;81.78;;;77.47;;
40058;SDS011;25763;49.972;8.568;2023-09-12T00:37:41;78.68;;;74.65;;
40058;SDS011;25763;49.972;8.568;2023-09-12T00:40:07;69.75;;;66.13;;
40058;SDS011;25763;49.972;8.568;2023-09-12T00:42:32;71.25;;;67.47;;
40058;SDS011;25763;49.972;8.568;2023-09-12T00:44:58;74.18;;;70.35;;
40058;SDS011;25763;49.972;8.568;2023-09-12T00:47:23;81.50;;;77.13;;
40058;SDS011;25763;49.972;8.568;2023-09-12T00:49:49;80.65;;;75.75;;
40058;SDS011;25763;49.972;8.568;2023-09-12T00:52:15;80.10;;;75.90;;
40058;SDS011;25763;49.972;8.568;2023-09-12T00:54:42;90.75;;;85.95;;
40058;SDS011;25763;49.972;8.568;2023-09-12T00:57:08;90.68;;;85.32;;
40058;SDS011;25763;49.972;8.568;2023-09-12T00:59:33;92.30;;;87.50;;
40058;SDS011;25763;49.972;8.568;2023-09-12T01:01:59;92.35;;;87.30;;
40058;SDS011;25763;49.972;8.568;2023-09-12T01:04:25;94.00;;;88.80;;
40058;SDS011;25763;49.972;8.568;2023-09-12T01:06:52;102.82;;;95.57;;
40058;SDS011;25763;49.972;8.568;2023-09-12T01:09:17;94.70;;;89.72;;
40058;SDS011;25763;49.972;8.568;2023-09-12T01:11:43;96.30;;;90.95;;
40058;SDS011;25763;49.972;8.568;2023-09-12T01:14:09;97.82;;;92.65;;
40058;SDS011;25763;49.972;8.568;2023-09-12T01:16:35;99.82;;;94.40;;
40058;SDS011;25763;49.972;8.568;2023-09-12T01:19:00;88.93;;;84.18;;
40058;SDS011;25763;49.972;8.568;2023-09-12T01:29:41;95.32;;;90.30;;
40058;SDS011;25763;49.972;8.568;2023-09-12T01:32:09;95.78;;;89.57;;
40058;SDS011;25763;49.972;8.568;2023-09-12T01:34:35;96.95;;;91.78;;
40058;SDS011;25763;49.972;8.568;2023-09-12T01:37:01;93.28;;;88.32;;
40058;SDS011;25763;49.972;8.568;2023-09-12T01:39:30;90.03;;;85.13;;
40058;SDS011;25763;49.972;8.568;2023-09-12T01:41:55;101.53;;;96.18;;
40058;SDS011;25763;49.972;8.568;2023-09-12T01:44:24;93.65;;;88.55;;
40058;SDS011;25763;49.972;8.568;2023-09-12T01:46:53;95.25;;;90.22;;
40058;SDS011;25763;49.972;8.568;2023-09-12T01:49:21;100.20;;;94.85;;
40058;SDS011;25763;49.972;8.568;2023-09-12T01:51:48;95.60;;;90.45;;
40058;SDS011;25763;49.972;8.568;2023-09-12T01:54:14;102.05;;;96.20;;
40058;SDS011;25763;49.972;8.568;2023-09-12T01:56:40;97.18;;;92.07;;
40058;SDS011;25763;49.972;8.568;2023-09-12T01:59:06;96.03;;;90.95;;
40058;SDS011;25763;49.972;8.568;2023-09-12T02:01:32;89.75;;;84.88;;
40058;SDS011;25763;49.972;8.568;2023-09-12T02:03:57;87.10;;;82.55;;
40058;SDS011;25763;49.972;8.568;2023-09-12T02:06:23;87.07;;;82.50;;
40058;SDS011;25763;49.972;8.568;2023-09-12T02:08:48;84.93;;;80.53;;
40058;SDS011;25763;49.972;8.568;2023-09-12T02:11:14;84.47;;;79.82;;
40058;SDS011;25763;49.972;8.568;2023-09-12T02:13:39;81.03;;;76.57;;
40058;SDS011;25763;49.972;8.568;2023-09-12T02:16:05;81.43;;;77.22;;
40058;SDS011;25763;49.972;8.568;2023-09-12T02:18:30;87.80;;;82.78;;
40058;SDS011;25763;49.972;8.568;2023-09-12T02:20:58;91.80;;;86.97;;
40058;SDS011;25763;49.972;8.568;2023-09-12T02:23:24;91.43;;;86.65;;
40058;SDS011;25763;49.972;8.568;2023-09-12T02:25:49;89.07;;;84.18;;
40058;SDS011;25763;49.972;8.568;2023-09-12T02:28:14;85.97;;;81.45;;
40058;SDS011;25763;49.972;8.568;2023-09-12T02:30:40;77.00;;;72.85;;
40058;SDS011;25763;49.972;8.568;2023-09-12T02:33:06;90.93;;;85.78;;
40058;SDS011;25763;49.972;8.568;2023-09-12T02:35:31;86.25;;;81.53;;
40058;SDS011;25763;49.972;8.568;2023-09-12T02:37:57;90.82;;;86.05;;
40058;SDS011;25763;49.972;8.568;2023-09-12T02:40:22;82.35;;;78.00;;
40058;SDS011;25763;49.972;8.568;2023-09-12T02:42:47;88.20;;;83.47;;
40058;SDS011;25763;49.972;8.568;2023-09-12T02:45:13;90.05;;;84.32;;
40058;SDS011;25763;49.972;8.568;2023-09-12T02:47:38;90.53;;;85.78;;
40058;SDS011;25763;49.972;8.568;2023-09-12T02:50:04;95.82;;;90.57;;
40058;SDS011;25763;49.972;8.568;2023-09-12T02:52:30;90.72;;;85.70;;
40058;SDS011;25763;49.972;8.568;2023-09-12T02:54:55;99.78;;;94.55;;
40058;SDS011;25763;49.972;8.568;2023-09-12T02:57:20;103.55;;;97.10;;
40058;SDS011;25763;49.972;8.568;2023-09-12T02:59:46;99.40;;;94.15;;
40058;SDS011;25763;49.972;8.568;2023-09-12T03:02:12;95.32;;;90.32;;
40058;SDS011;25763;49.972;8.568;2023-09-12T03:04:37;100.55;;;95.25;;
40058;SDS011;25763;49.972;8.568;2023-09-12T03:07:02;105.47;;;99.05;;
40058;SDS011;25763;49.972;8.568;2023-09-12T03:09:28;100.57;;;95.13;;
40058;SDS011;25763;49.972;8.568;2023-09-12T03:11:53;96.70;;;91.55;;
40058;SDS011;25763;49.972;8.568;2023-09-12T03:14:19;94.07;;;89.05;;
40058;SDS011;25763;49.972;8.568;2023-09-12T03:16:44;90.72;;;85.88;;
40058;SDS011;25763;49.972;8.568;2023-09-12T03:19:10;97.05;;;91.93;;
40058;SDS011;25763;49.972;8.568;2023-09-12T03:21:35;104.70;;;98.70;;
40058;SDS011;25763;49.972;8.568;2023-09-12T03:24:00;110.50;;;104.53;;
40058;SDS011;25763;49.972;8.568;2023-09-12T03:26:26;120.28;;;113.85;;
40058;SDS011;25763;49.972;8.568;2023-09-12T03:28:51;119.25;;;112.90;;
40058;SDS011;25763;49.972;8.568;2023-09-12T03:31:17;124.03;;;117.38;;
40058;SDS011;25763;49.972;8.568;2023-09-12T03:33:43;122.50;;;115.78;;
40058;SDS011;25763;49.972;8.568;2023-09-12T03:36:14;112.82;;;106.53;;
40058;SDS011;25763;49.972;8.568;2023-09-12T03:38:40;111.07;;;105.28;;
40058;SDS011;25763;49.972;8.568;2023-09-12T03:41:05;119.10;;;112.40;;
40058;SDS011;25763;49.972;8.568;2023-09-12T03:43:30;119.07;;;112.55;;
40058;SDS011;25763;49.972;8.568;2023-09-12T03:45:57;130.88;;;123.97;;
40058;SDS011;25763;49.972;8.568;2023-09-12T03:48:22;130.32;;;123.40;;
40058;SDS011;25763;49.972;8.568;2023-09-12T03:50:48;138.23;;;130.85;;
40058;SDS011;25763;49.972;8.568;2023-09-12T03:53:13;151.75;;;143.45;;
40058;SDS011;25763;49.972;8.568;2023-09-12T03:55:40;154.60;;;146.30;;
40058;SDS011;25763;49.972;8.568;2023-09-12T03:58:05;151.85;;;143.65;;
40058;SDS011;25763;49.972;8.568;2023-09-12T04:00:31;138.85;;;131.55;;
40058;SDS011;25763;49.972;8.568;2023-09-12T04:02:56;133.77;;;126.80;;
40058;SDS011;25763;49.972;8.568;2023-09-12T04:05:21;126.95;;;120.25;;
40058;SDS011;25763;49.972;8.568;2023-09-12T04:07:47;129.63;;;122.82;;
40058;SDS011;25763;49.972;8.568;2023-09-12T04:10:12;129.70;;;122.78;;
40058;SDS011;25763;49.972;8.568;2023-09-12T04:12:38;128.15;;;121.32;;
40058;SDS011;25763;49.972;8.568;2023-09-12T04:15:04;133.30;;;126.10;;
40058;SDS011;25763;49.972;8.568;2023-09-12T04:17:31;136.50;;;129.27;;
40058;SDS011;25763;49.972;8.568;2023-09-12T04:19:56;130.77;;;123.65;;
40058;SDS011;25763;49.972;8.568;2023-09-12T04:22:22;127.75;;;120.95;;
40058;SDS011;25763;49.972;8.568;2023-09-12T04:24:47;127.00;;;120.22;;
40058;SDS011;25763;49.972;8.568;2023-09-12T04:27:13;129.77;;;122.43;;
40058;SDS011;25763;49.972;8.568;2023-09-12T04:29:38;128.20;;;121.43;;
40058;SDS011;25763;49.972;8.568;2023-09-12T04:32:04;125.07;;;118.53;;
40058;SDS011;25763;49.972;8.568;2023-09-12T04:34:30;125.68;;;118.97;;
40058;SDS011;25763;49.972;8.568;2023-09-12T04:36:56;128.10;;;121.35;;
40058;SDS011;25763;49.972;8.568;2023-09-12T04:39:21;125.88;;;118.95;;
40058;SDS011;25763;49.972;8.568;2023-09-12T04:41:46;120.30;;;113.90;;
40058;SDS011;25763;49.972;8.568;2023-09-12T04:44:12;106.93;;;101.32;;
40058;SDS011;25763;49.972;8.568;2023-09-12T04:46:37;107.13;;;101.38;;
40058;SDS011;25763;49.972;8.568;2023-09-12T04:49:03;111.60;;;105.63;;
40058;SDS011;25763;49.972;8.568;2023-09-12T04:51:28;110.57;;;104.57;;
40058;SDS011;25763;49.972;8.568;2023-09-12T04:53:54;104.93;;;99.40;;
40058;SDS011;25763;49.972;8.568;2023-09-12T04:56:20;110.63;;;104.82;;
40058;SDS011;25763;49.972;8.568;2023-09-12T04:58:45;103.63;;;98.25;;
40058;SDS011;25763;49.972;8.568;2023-09-12T05:01:10;108.10;;;102.20;;
40058;SDS011;25763;49.972;8.568;2023-09-12T05:03:36;105.38;;;99.07;;
40058;SDS011;25763;49.972;8.568;2023-09-12T05:06:02;103.88;;;97.70;;
40058;SDS011;25763;49.972;8.568;2023-09-12T05:08:28;109.93;;;104.03;;
40058;SDS011;25763;49.972;8.568;2023-09-12T05:10:54;103.90;;;98.40;;
40058;SDS011;25763;49.972;8.568;2023-09-12T05:13:20;116.65;;;110.40;;
40058;SDS011;25763;49.972;8.568;2023-09-12T05:15:46;111.55;;;105.47;;
40058;SDS011;25763;49.972;8.568;2023-09-12T05:18:11;123.88;;;117.20;;
40058;SDS011;25763;49.972;8.568;2023-09-12T05:20:37;119.00;;;112.53;;
40058;SDS011;25763;49.972;8.568;2023-09-12T05:23:03;124.63;;;118.05;;
40058;SDS011;25763;49.972;8.568;2023-09-12T05:25:28;124.88;;;118.13;;
40058;SDS011;25763;49.972;8.568;2023-09-12T05:27:55;131.65;;;124.60;;
40058;SDS011;25763;49.972;8.568;2023-09-12T05:30:21;131.45;;;124.47;;
40058;SDS011;25763;49.972;8.568;2023-09-12T05:32:47;131.32;;;124.18;;
40058;SDS011;25763;49.972;8.568;2023-09-12T05:35:12;128.38;;;121.65;;
40058;SDS011;25763;49.972;8.568;2023-09-12T05:37:38;135.10;;;127.80;;
40058;SDS011;25763;49.972;8.568;2023-09-12T05:40:03;138.18;;;130.77;;
40058;SDS011;25763;49.972;8.568;2023-09-12T05:42:30;135.10;;;127.90;;
40058;SDS011;25763;49.972;8.568;2023-09-12T05:44:56;132.60;;;125.55;;
40058;SDS011;25763;49.972;8.568;2023-09-12T05:47:22;134.30;;;127.07;;
40058;SDS011;25763;49.972;8.568;2023-09-12T05:49:48;126.60;;;119.90;;
40058;SDS011;25763;49.972;8.568;2023-09-12T05:52:15;131.73;;;124.65;;
40058;SDS011;25763;49.972;8.568;2023-09-12T05:54:41;127.32;;;120.60;;
40058;SDS011;25763;49.972;8.568;2023-09-12T05:57:07;122.60;;;116.22;;
40058;SDS011;25763;49.972;8.568;2023-09-12T05:59:36;126.95;;;120.20;;
40058;SDS011;25763;49.972;8.568;2023-09-12T06:02:03;122.13;;;115.68;;
40058;SDS011;25763;49.972;8.568;2023-09-12T06:04:30;122.43;;;116.05;;
40058;SDS011;25763;49.972;8.568;2023-09-12T06:06:55;124.07;;;115.97;;
40058;SDS011;25763;49.972;8.568;2023-09-12T06:09:21;116.53;;;110.25;;
40058;SDS011;25763;49.972;8.568;2023-09-12T06:11:46;111.68;;;105.65;;
40058;SDS011;25763;49.972;8.568;2023-09-12T06:14:12;109.03;;;103.22;;
40058;SDS011;25763;49.972;8.568;2023-09-12T06:16:37;98.22;;;92.97;;
40058;SDS011;25763;49.972;8.568;2023-09-12T06:19:03;91.18;;;85.18;;
40058;SDS011;25763;49.972;8.568;2023-09-12T06:21:29;90.65;;;85.97;;
40058;SDS011;25763;49.972;8.568;2023-09-12T06:24:10;84.82;;;80.30;;
40058;SDS011;25763;49.972;8.568;2023-09-12T06:26:43;70.55;;;66.30;;
40058;SDS011;25763;49.972;8.568;2023-09-12T06:29:09;68.82;;;64.88;;
40058;SDS011;25763;49.972;8.568;2023-09-12T06:31:34;56.40;;;53.45;;
40058;SDS011;25763;49.972;8.568;2023-09-12T06:34:02;52.70;;;49.83;;
40058;SDS011;25763;49.972;8.568;2023-09-12T06:36:28;59.05;;;55.53;;
40058;SDS011;25763;49.972;8.568;2023-09-12T06:38:57;44.72;;;42.13;;
40058;SDS011;25763;49.972;8.568;2023-09-12T06:41:23;42.85;;;40.45;;
40058;SDS011;25763;49.972;8.568;2023-09-12T06:43:48;38.30;;;36.30;;
40058;SDS011;25763;49.972;8.568;2023-09-12T06:46:14;43.83;;;41.53;;
40058;SDS011;25763;49.972;8.568;2023-09-12T06:48:39;36.58;;;34.63;;
40058;SDS011;25763;49.972;8.568;2023-09-12T06:51:05;37.85;;;35.70;;
40058;SDS011;25763;49.972;8.568;2023-09-12T06:53:34;29.07;;;27.37;;
40058;SDS011;25763;49.972;8.568;2023-09-12T06:56:02;29.65;;;27.92;;
40058;SDS011;25763;49.972;8.568;2023-09-12T06:58:28;38.13;;;35.63;;
40058;SDS011;25763;49.972;8.568;2023-09-12T07:00:53;33.80;;;31.80;;
40058;SDS011;25763;49.972;8.568;2023-09-12T07:03:19;27.42;;;25.85;;
40058;SDS011;25763;49.972;8.568;2023-09-12T07:05:44;25.20;;;23.80;;
40058;SDS011;25763;49.972;8.568;2023-09-12T07:08:09;28.13;;;26.55;;
40058;SDS011;25763;49.972;8.568;2023-09-12T07:10:35;28.10;;;26.25;;
40058;SDS011;25763;49.972;8.568;2023-09-12T07:13:01;30.23;;;28.48;;
40058;SDS011;25763;49.972;8.568;2023-09-12T07:15:27;29.33;;;27.52;;
40058;SDS011;25763;49.972;8.568;2023-09-12T07:17:53;33.13;;;31.10;;
40058;SDS011;25763;49.972;8.568;2023-09-12T07:20:18;29.77;;;28.17;;
40058;SDS011;25763;49.972;8.568;2023-09-12T07:22:44;29.33;;;27.65;;
40058;SDS011;25763;49.972;8.568;2023-09-12T07:25:10;38.90;;;36.85;;
40058;SDS011;25763;49.972;8.568;2023-09-12T07:27:36;39.20;;;37.10;;
40058;SDS011;25763;49.972;8.568;2023-09-12T07:30:03;66.82;;;63.30;;
40058;SDS011;25763;49.972;8.568;2023-09-12T07:32:29;84.88;;;80.32;;
40058;SDS011;25763;49.972;8.568;2023-09-12T07:34:55;64.38;;;60.97;;
40058;SDS011;25763;49.972;8.568;2023-09-12T07:37:20;97.03;;;92.10;;
40058;SDS011;25763;49.972;8.568;2023-09-12T07:39:45;83.72;;;79.50;;
40058;SDS011;25763;49.972;8.568;2023-09-12T07:42:11;105.90;;;100.55;;
40058;SDS011;25763;49.972;8.568;2023-09-12T07:44:36;114.30;;;108.65;;
40058;SDS011;25763;49.972;8.568;2023-09-12T07:47:01;134.65;;;127.75;;
40058;SDS011;25763;49.972;8.568;2023-09-12T07:49:27;143.27;;;136.23;;
40058;SDS011;25763;49.972;8.568;2023-09-12T07:51:52;136.45;;;129.68;;
40058;SDS011;25763;49.972;8.568;2023-09-12T07:54:19;136.65;;;129.25;;
40058;SDS011;25763;49.972;8.568;2023-09-12T07:56:44;138.60;;;131.50;;
40058;SDS011;25763;49.972;8.568;2023-09-12T07:59:10;139.20;;;132.32;;
40058;SDS011;25763;49.972;8.568;2023-09-12T08:01:37;115.15;;;109.43;;
40058;SDS011;25763;49.972;8.568;2023-09-12T08:04:02;96.60;;;91.75;;
40058;SDS011;25763;49.972;8.568;2023-09-12T08:06:28;137.77;;;130.90;;
40058;SDS011;25763;49.972;8.568;2023-09-12T08:08:53;151.88;;;144.35;;
40058;SDS011;25763;49.972;8.568;2023-09-12T08:11:18;156.13;;;148.43;;
40058;SDS011;25763;49.972;8.568;2023-09-12T08:13:45;132.95;;;126.32;;
40058;SDS011;25763;49.972;8.568;2023-09-12T08:16:13;82.13;;;78.00;;
40058;SDS011;25763;49.972;8.568;2023-09-12T08:18:38;139.73;;;132.75;;
40058;SDS011;25763;49.972;8.568;2023-09-12T08:21:04;173.35;;;164.30;;
40058;SDS011;25763;49.972;8.568;2023-09-12T08:23:29;172.15;;;163.63;;
40058;SDS011;25763;49.972;8.568;2023-09-12T08:25:54;201.95;;;191.88;;
40058;SDS011;25763;49.972;8.568;2023-09-12T08:28:20;194.20;;;184.68;;
40058;SDS011;25763;49.972;8.568;2023-09-12T08:30:45;230.00;;;218.73;;
40058;SDS011;25763;49.972;8.568;2023-09-12T08:33:13;228.75;;;217.63;;
40058;SDS011;25763;49.972;8.568;2023-09-12T08:35:38;258.00;;;245.45;;
40058;SDS011;25763;49.972;8.568;2023-09-12T08:38:04;267.25;;;254.18;;
40058;SDS011;25763;49.972;8.568;2023-09-12T08:40:30;243.20;;;231.43;;
40058;SDS011;25763;49.972;8.568;2023-09-12T08:42:56;214.90;;;204.48;;
40058;SDS011;25763;49.972;8.568;2023-09-12T08:45:22;255.77;;;243.32;;
40058;SDS011;25763;49.972;8.568;2023-09-12T08:47:52;197.00;;;187.35;;
40058;SDS011;25763;49.972;8.568;2023-09-12T08:50:19;163.60;;;155.50;;
40058;SDS011;25763;49.972;8.568;2023-09-12T08:52:46;235.88;;;224.15;;
40058;SDS011;25763;49.972;8.568;2023-09-12T08:55:12;172.95;;;164.02;;
40058;SDS011;25763;49.972;8.568;2023-09-12T08:57:39;131.27;;;124.60;;
40058;SDS011;25763;49.972;8.568;2023-09-12T09:00:06;181.75;;;172.80;;
40058;SDS011;25763;49.972;8.568;2023-09-12T09:02:34;118.80;;;112.72;;
40058;SDS011;25763;49.972;8.568;2023-09-12T09:05:04;131.35;;;124.72;;
40058;SDS011;25763;49.972;8.568;2023-09-12T09:07:31;110.10;;;104.63;;
40058;SDS011;25763;49.972;8.568;2023-09-12T09:10:00;137.30;;;130.40;;
40058;SDS011;25763;49.972;8.568;2023-09-12T09:12:28;134.82;;;127.97;;
40058;SDS011;25763;49.972;8.568;2023-09-12T09:14:53;85.30;;;81.05;;
40058;SDS011;25763;49.972;8.568;2023-09-12T09:17:19;100.78;;;95.78;;
40058;SDS011;25763;49.972;8.568;2023-09-12T09:19:44;143.43;;;135.02;;
40058;SDS011;25763;49.972;8.568;2023-09-12T09:22:10;98.63;;;93.13;;
40058;SDS011;25763;49.972;8.568;2023-09-12T09:24:35;94.32;;;89.63;;
40058;SDS011;25763;49.972;8.568;2023-09-12T09:27:01;99.53;;;94.57;;
40058;SDS011;25763;49.972;8.568;2023-09-12T09:29:27;117.82;;;111.53;;
40058;SDS011;25763;49.972;8.568;2023-09-12T09:31:57;103.38;;;98.22;;
40058;SDS011;25763;49.972;8.568;2023-09-12T09:34:24;125.70;;;119.22;;
40058;SDS011;25763;49.972;8.568;2023-09-12T09:36:53;112.50;;;106.82;;
40058;SDS011;25763;49.972;8.568;2023-09-12T09:39:21;135.55;;;128.55;;
40058;SDS011;25763;49.972;8.568;2023-09-12T09:41:51;141.30;;;133.50;;
40058;SDS011;25763;49.972;8.568;2023-09-12T09:44:18;147.70;;;140.35;;
40058;SDS011;25763;49.972;8.568;2023-09-12T09:46:45;127.15;;;120.55;;
40058;SDS011;25763;49.972;8.568;2023-09-12T09:49:14;142.60;;;135.57;;
40058;SDS011;25763;49.972;8.568;2023-09-12T09:51:43;136.85;;;130.07;;
40058;SDS011;25763;49.972;8.568;2023-09-12T09:54:09;155.80;;;148.05;;
40058;SDS011;25763;49.972;8.568;2023-09-12T09:56:46;179.23;;;170.35;;
40058;SDS011;25763;49.972;8.568;2023-09-12T09:59:23;260.42;;;247.57;;
40058;SDS011;25763;49.972;8.568;2023-09-12T10:01:50;360.10;;;341.80;;
40058;SDS011;25763;49.972;8.568;2023-09-12T10:04:18;374.40;;;355.35;;
40058;SDS011;25763;49.972;8.568;2023-09-12T10:06:44;385.30;;;365.55;;
40058;SDS011;25763;49.972;8.568;2023-09-12T10:09:12;389.42;;;369.40;;
40058;SDS011;25763;49.972;8.568;2023-09-12T10:11:39;359.40;;;341.33;;
40058;SDS011;25763;49.972;8.568;2023-09-12T10:14:06;315.13;;;299.45;;
40058;SDS011;25763;49.972;8.568;2023-09-12T10:16:33;331.08;;;314.50;;
40058;SDS011;25763;49.972;8.568;2023-09-12T10:21:32;351.98;;;333.58;;
40058;SDS011;25763;49.972;8.568;2023-09-12T10:23:59;213.90;;;203.43;;
40058;SDS011;25763;49.972;8.568;2023-09-12T10:26:26;253.68;;;241.23;;
40058;SDS011;25763;49.972;8.568;2023-09-12T10:28:51;226.02;;;215.00;;
40058;SDS011;25763;49.972;8.568;2023-09-12T10:31:17;208.43;;;198.18;;
40058;SDS011;25763;49.972;8.568;2023-09-12T10:33:44;199.77;;;189.98;;
40058;SDS011;25763;49.972;8.568;2023-09-12T10:36:10;199.73;;;189.98;;
40058;SDS011;25763;49.972;8.568;2023-09-12T10:38:40;199.57;;;189.73;;
40058;SDS011;25763;49.972;8.568;2023-09-12T10:41:08;226.13;;;215.05;;
40058;SDS011;25763;49.972;8.568;2023-09-12T10:43:42;193.10;;;183.57;;
40058;SDS011;25763;49.972;8.568;2023-09-12T10:46:08;186.52;;;177.20;;
40058;SDS011;25763;49.972;8.568;2023-09-12T10:48:37;190.88;;;181.50;;
40058;SDS011;25763;49.972;8.568;2023-09-12T10:51:05;180.93;;;171.93;;
40058;SDS011;25763;49.972;8.568;2023-09-12T10:53:32;188.18;;;178.52;;
40058;SDS011;25763;49.972;8.568;2023-09-12T10:58:33;176.15;;;166.55;;
40058;SDS011;25763;49.972;8.568;2023-09-12T11:01:22;165.57;;;157.23;;
40058;SDS011;25763;49.972;8.568;2023-09-12T11:03:50;179.68;;;170.77;;
40058;SDS011;25763;49.972;8.568;2023-09-12T11:06:22;170.98;;;162.52;;
40058;SDS011;25763;49.972;8.568;2023-09-12T11:11:55;162.52;;;154.45;;
40058;SDS011;25763;49.972;8.568;2023-09-12T11:14:23;180.23;;;171.27;;
40058;SDS011;25763;49.972;8.568;2023-09-12T11:19:43;197.32;;;187.57;;
40058;SDS011;25763;49.972;8.568;2023-09-12T11:22:22;172.80;;;164.20;;
40058;SDS011;25763;49.972;8.568;2023-09-12T11:24:56;176.95;;;168.07;;
40058;SDS011;25763;49.972;8.568;2023-09-12T11:27:25;172.18;;;163.50;;
40058;SDS011;25763;49.972;8.568;2023-09-12T11:30:09;156.80;;;149.00;;
40058;SDS011;25763;49.972;8.568;2023-09-12T11:32:36;156.10;;;147.98;;
40058;SDS011;25763;49.972;8.568;2023-09-12T11:35:07;160.95;;;152.95;;
40058;SDS011;25763;49.972;8.568;2023-09-12T11:37:33;150.73;;;143.13;;
40058;SDS011;25763;49.972;8.568;2023-09-12T11:40:02;152.05;;;144.48;;
40058;SDS011;25763;49.972;8.568;2023-09-12T11:42:41;136.63;;;129.77;;
40058;SDS011;25763;49.972;8.568;2023-09-12T11:45:10;119.93;;;113.68;;
40058;SDS011;25763;49.972;8.568;2023-09-12T11:47:40;91.22;;;86.57;;
40058;SDS011;25763;49.972;8.568;2023-09-12T11:50:06;109.05;;;101.53;;
40058;SDS011;25763;49.972;8.568;2023-09-12T11:52:35;103.90;;;97.78;;
40058;SDS011;25763;49.972;8.568;2023-09-12T11:55:02;52.58;;;49.78;;
40058;SDS011;25763;49.972;8.568;2023-09-12T11:57:28;54.03;;;51.20;;
40058;SDS011;25763;49.972;8.568;2023-09-12T11:59:53;58.33;;;55.22;;
40058;SDS011;25763;49.972;8.568;2023-09-12T12:02:19;37.05;;;35.10;;
40058;SDS011;25763;49.972;8.568;2023-09-12T12:04:44;59.45;;;56.22;;
40058;SDS011;25763;49.972;8.568;2023-09-12T12:07:10;50.30;;;47.47;;
40058;SDS011;25763;49.972;8.568;2023-09-12T12:09:36;30.23;;;28.58;;
40058;SDS011;25763;49.972;8.568;2023-09-12T12:12:19;46.65;;;43.78;;
40058;SDS011;25763;49.972;8.568;2023-09-12T12:14:45;34.90;;;32.67;;
40058;SDS011;25763;49.972;8.568;2023-09-12T12:17:11;29.60;;;27.90;;
40058;SDS011;25763;49.972;8.568;2023-09-12T12:19:38;29.42;;;27.73;;
40058;SDS011;25763;49.972;8.568;2023-09-12T12:22:04;28.92;;;27.27;;
40058;SDS011;25763;49.972;8.568;2023-09-12T12:24:45;29.77;;;27.98;;
40058;SDS011;25763;49.972;8.568;2023-09-12T12:27:11;29.90;;;28.30;;
40058;SDS011;25763;49.972;8.568;2023-09-12T12:29:37;28.08;;;26.48;;
40058;SDS011;25763;49.972;8.568;2023-09-12T12:32:04;28.55;;;26.98;;
40058;SDS011;25763;49.972;8.568;2023-09-12T12:34:30;29.33;;;27.80;;
40058;SDS011;25763;49.972;8.568;2023-09-12T12:36:56;33.80;;;31.95;;
40058;SDS011;25763;49.972;8.568;2023-09-12T12:39:22;35.00;;;33.10;;
40058;SDS011;25763;49.972;8.568;2023-09-12T12:41:48;30.63;;;28.92;;
40058;SDS011;25763;49.972;8.568;2023-09-12T12:44:13;35.90;;;34.00;;
40058;SDS011;25763;49.972;8.568;2023-09-12T12:46:47;27.33;;;25.80;;
40058;SDS011;25763;49.972;8.568;2023-09-12T12:49:17;29.17;;;27.58;;
40058;SDS011;25763;49.972;8.568;2023-09-12T12:51:43;31.48;;;29.77;;
40058;SDS011;25763;49.972;8.568;2023-09-12T12:54:09;34.22;;;32.38;;
40058;SDS011;25763;49.972;8.568;2023-09-12T12:56:35;29.58;;;27.98;;
40058;SDS011;25763;49.972;8.568;2023-09-12T12:59:01;35.13;;;33.00;;
40058;SDS011;25763;49.972;8.568;2023-09-12T13:01:29;35.97;;;33.92;;
40058;SDS011;25763;49.972;8.568;2023-09-12T13:03:54;39.15;;;36.95;;
40058;SDS011;25763;49.972;8.568;2023-09-12T13:06:22;37.45;;;35.30;;
40058;SDS011;25763;49.972;8.568;2023-09-12T13:08:48;43.08;;;40.78;;
40058;SDS011;25763;49.972;8.568;2023-09-12T13:11:14;44.72;;;41.92;;
40058;SDS011;25763;49.972;8.568;2023-09-12T13:13:41;43.33;;;40.95;;
40058;SDS011;25763;49.972;8.568;2023-09-12T13:16:09;47.33;;;44.83;;
40058;SDS011;25763;49.972;8.568;2023-09-12T13:18:38;47.05;;;44.65;;
40058;SDS011;25763;49.972;8.568;2023-09-12T13:21:05;41.30;;;38.80;;
40058;SDS011;25763;49.972;8.568;2023-09-12T13:23:32;47.17;;;44.67;;
40058;SDS011;25763;49.972;8.568;2023-09-12T13:25:59;45.22;;;42.90;;
40058;SDS011;25763;49.972;8.568;2023-09-12T13:28:24;46.20;;;43.80;;
40058;SDS011;25763;49.972;8.568;2023-09-12T13:30:53;49.78;;;46.95;;
40058;SDS011;25763;49.972;8.568;2023-09-12T13:33:19;45.15;;;42.83;;
40058;SDS011;25763;49.972;8.568;2023-09-12T13:35:48;47.17;;;44.20;;
40058;SDS011;25763;49.972;8.568;2023-09-12T13:38:14;45.78;;;43.38;;
40058;SDS011;25763;49.972;8.568;2023-09-12T13:40:42;43.33;;;41.03;;
40058;SDS011;25763;49.972;8.568;2023-09-12T13:43:08;46.08;;;43.70;;
40058;SDS011;25763;49.972;8.568;2023-09-12T13:45:34;39.03;;;36.83;;
40058;SDS011;25763;49.972;8.568;2023-09-12T13:48:00;38.67;;;36.67;;
40058;SDS011;25763;49.972;8.568;2023-09-12T13:50:26;53.83;;;51.08;;
40058;SDS011;25763;49.972;8.568;2023-09-12T13:52:56;36.05;;;34.05;;
40058;SDS011;25763;49.972;8.568;2023-09-12T13:55:24;46.47;;;43.88;;
40058;SDS011;25763;49.972;8.568;2023-09-12T13:57:50;42.20;;;39.92;;
40058;SDS011;25763;49.972;8.568;2023-09-12T14:00:15;48.25;;;45.50;;
40058;SDS011;25763;49.972;8.568;2023-09-12T14:02:41;45.20;;;42.83;;
40058;SDS011;25763;49.972;8.568;2023-09-12T14:05:06;47.08;;;44.67;;
40058;SDS011;25763;49.972;8.568;2023-09-12T14:07:32;48.88;;;46.22;;
40058;SDS011;25763;49.972;8.568;2023-09-12T14:09:57;49.50;;;46.90;;
40058;SDS011;25763;49.972;8.568;2023-09-12T14:12:23;50.15;;;47.50;;
40058;SDS011;25763;49.972;8.568;2023-09-12T14:14:50;52.83;;;50.03;;
40058;SDS011;25763;49.972;8.568;2023-09-12T14:17:16;49.30;;;46.80;;
40058;SDS011;25763;49.972;8.568;2023-09-12T14:19:41;48.28;;;45.75;;
40058;SDS011;25763;49.972;8.568;2023-09-12T14:22:06;35.10;;;33.20;;
40058;SDS011;25763;49.972;8.568;2023-09-12T14:24:32;50.28;;;47.40;;